sensor_id;sensor_type;location;lat;lon;timestamp;temperature;humidity
318;DHT22;146;53.448;10.228;2022-11-15T00:01:32;6.20;5.90
318;DHT22;146;53.448;10.228;2022-11-15T00:03:59;6.30;6.00
318;DHT22;146;53.448;10.228;2022-11-15T00:06:26;6.30;6.10
318;DHT22;146;53.448;10.228;2022-11-15T00:08:53;6.30;6.30
318;DHT22;146;53.448;10.228;2022-11-15T00:11:20;6.30;6.40
318;DHT22;146;53.448;10.228;2022-11-15T00:13:49;6.30;6.30
318;DHT22;146;53.448;10.228;2022-11-15T00:16:16;6.40;6.20
318;DHT22;146;53.448;10.228;2022-11-15T00:18:43;6.30;6.10
318;DHT22;146;53.448;10.228;2022-11-15T00:21:11;6.30;6.00
318;DHT22;146;53.448;10.228;2022-11-15T00:23:38;6.30;6.10
318;DHT22;146;53.448;10.228;2022-11-15T00:26:05;6.40;6.10
318;DHT22;146;53.448;10.228;2022-11-15T00:28:35;6.40;6.00
318;DHT22;146;53.448;10.228;2022-11-15T00:31:05;6.40;5.80
318;DHT22;146;53.448;10.228;2022-11-15T00:33:33;6.40;5.60
318;DHT22;146;53.448;10.228;2022-11-15T00:36:01;6.40;5.20
318;DHT22;146;53.448;10.228;2022-11-15T00:38:33;6.30;4.90
318;DHT22;146;53.448;10.228;2022-11-15T00:41:01;6.30;4.70
318;DHT22;146;53.448;10.228;2022-11-15T00:43:28;6.30;4.70
318;DHT22;146;53.448;10.228;2022-11-15T00:45:55;6.40;5.00
318;DHT22;146;53.448;10.228;2022-11-15T00:48:24;6.40;5.30
318;DHT22;146;53.448;10.228;2022-11-15T00:50:53;6.50;5.40
318;DHT22;146;53.448;10.228;2022-11-15T00:53:50;6.60;5.40
318;DHT22;146;53.448;10.228;2022-11-15T00:56:41;6.60;5.30
318;DHT22;146;53.448;10.228;2022-11-15T00:59:08;6.70;5.20
318;DHT22;146;53.448;10.228;2022-11-15T01:01:35;6.80;4.90
318;DHT22;146;53.448;10.228;2022-11-15T01:04:04;6.80;4.50
318;DHT22;146;53.448;10.228;2022-11-15T01:06:30;6.90;4.10
318;DHT22;146;53.448;10.228;2022-11-15T01:08:57;6.90;3.50
318;DHT22;146;53.448;10.228;2022-11-15T01:11:24;7.00;3.00
318;DHT22;146;53.448;10.228;2022-11-15T01:13:51;7.00;2.60
318;DHT22;146;53.448;10.228;2022-11-15T01:16:18;7.00;2.10
318;DHT22;146;53.448;10.228;2022-11-15T01:18:45;7.00;1.70
318;DHT22;146;53.448;10.228;2022-11-15T01:21:16;6.90;1.30
318;DHT22;146;53.448;10.228;2022-11-15T01:23:43;6.90;1.00
318;DHT22;146;53.448;10.228;2022-11-15T01:26:12;6.80;1.00
318;DHT22;146;53.448;10.228;2022-11-15T01:28:41;6.80;1.00
318;DHT22;146;53.448;10.228;2022-11-15T01:31:12;6.80;1.00
318;DHT22;146;53.448;10.228;2022-11-15T01:33:39;6.70;1.00
318;DHT22;146;53.448;10.228;2022-11-15T01:36:09;6.70;1.00
318;DHT22;146;53.448;10.228;2022-11-15T01:38:38;6.60;1.00
318;DHT22;146;53.448;10.228;2022-11-15T01:41:05;6.60;1.00
318;DHT22;146;53.448;10.228;2022-11-15T01:43:33;6.60;1.00
318;DHT22;146;53.448;10.228;2022-11-15T01:46:04;6.50;1.00
318;DHT22;146;53.448;10.228;2022-11-15T01:48:33;6.50;1.00
318;DHT22;146;53.448;10.228;2022-11-15T01:51:04;6.40;1.00
318;DHT22;146;53.448;10.228;2022-11-15T01:53:33;6.30;1.10
318;DHT22;146;53.448;10.228;2022-11-15T01:56:05;6.20;1.70
318;DHT22;146;53.448;10.228;2022-11-15T01:58:33;6.20;2.00
318;DHT22;146;53.448;10.228;2022-11-15T02:01:01;6.20;2.20
318;DHT22;146;53.448;10.228;2022-11-15T02:03:34;6.20;2.50
318;DHT22;146;53.448;10.228;2022-11-15T02:06:04;6.10;2.60
318;DHT22;146;53.448;10.228;2022-11-15T02:08:31;6.20;2.80
318;DHT22;146;53.448;10.228;2022-11-15T02:10:58;6.10;2.60
318;DHT22;146;53.448;10.228;2022-11-15T02:13:27;6.10;2.40
318;DHT22;146;53.448;10.228;2022-11-15T02:16:00;6.00;2.70
318;DHT22;146;53.448;10.228;2022-11-15T02:18:34;6.00;2.90
318;DHT22;146;53.448;10.228;2022-11-15T02:21:11;5.90;3.20
318;DHT22;146;53.448;10.228;2022-11-15T02:24:14;5.90;3.60
318;DHT22;146;53.448;10.228;2022-11-15T02:27:04;5.80;3.90
318;DHT22;146;53.448;10.228;2022-11-15T02:29:56;5.80;4.30
318;DHT22;146;53.448;10.228;2022-11-15T02:32:35;5.80;4.60
318;DHT22;146;53.448;10.228;2022-11-15T02:35:11;5.80;4.70
318;DHT22;146;53.448;10.228;2022-11-15T02:37:44;5.80;5.00
318;DHT22;146;53.448;10.228;2022-11-15T02:40:19;5.80;4.80
318;DHT22;146;53.448;10.228;2022-11-15T02:42:53;5.90;4.80
318;DHT22;146;53.448;10.228;2022-11-15T02:45:41;5.80;4.40
318;DHT22;146;53.448;10.228;2022-11-15T02:48:12;5.80;4.40
318;DHT22;146;53.448;10.228;2022-11-15T02:50:40;5.70;4.30
318;DHT22;146;53.448;10.228;2022-11-15T02:53:07;5.80;4.20
318;DHT22;146;53.448;10.228;2022-11-15T02:55:36;5.80;4.00
318;DHT22;146;53.448;10.228;2022-11-15T03:01:00;5.70;3.70
318;DHT22;146;53.448;10.228;2022-11-15T03:03:44;5.70;3.80
318;DHT22;146;53.448;10.228;2022-11-15T03:06:25;5.80;3.80
318;DHT22;146;53.448;10.228;2022-11-15T03:09:02;5.70;3.70
318;DHT22;146;53.448;10.228;2022-11-15T03:11:33;5.70;3.70
318;DHT22;146;53.448;10.228;2022-11-15T03:14:05;5.80;3.70
318;DHT22;146;53.448;10.228;2022-11-15T03:16:37;5.70;3.60
318;DHT22;146;53.448;10.228;2022-11-15T03:19:11;5.70;3.70
318;DHT22;146;53.448;10.228;2022-11-15T03:21:40;5.70;3.50
318;DHT22;146;53.448;10.228;2022-11-15T03:24:08;5.70;3.70
318;DHT22;146;53.448;10.228;2022-11-15T03:26:38;5.80;3.70
318;DHT22;146;53.448;10.228;2022-11-15T03:29:10;5.70;3.60
318;DHT22;146;53.448;10.228;2022-11-15T03:31:49;5.80;3.50
318;DHT22;146;53.448;10.228;2022-11-15T03:34:34;5.90;3.40
318;DHT22;146;53.448;10.228;2022-11-15T03:37:02;5.80;3.00
318;DHT22;146;53.448;10.228;2022-11-15T03:39:29;5.80;3.20
318;DHT22;146;53.448;10.228;2022-11-15T03:42:04;5.80;3.00
318;DHT22;146;53.448;10.228;2022-11-15T03:44:39;5.80;3.20
318;DHT22;146;53.448;10.228;2022-11-15T03:47:11;5.80;3.20
318;DHT22;146;53.448;10.228;2022-11-15T03:49:44;5.90;3.10
318;DHT22;146;53.448;10.228;2022-11-15T03:52:12;5.90;3.10
318;DHT22;146;53.448;10.228;2022-11-15T03:54:48;5.80;3.20
318;DHT22;146;53.448;10.228;2022-11-15T03:57:16;5.90;3.50
318;DHT22;146;53.448;10.228;2022-11-15T03:59:43;6.00;3.40
318;DHT22;146;53.448;10.228;2022-11-15T04:02:11;6.10;3.30
318;DHT22;146;53.448;10.228;2022-11-15T04:04:38;6.10;3.10
318;DHT22;146;53.448;10.228;2022-11-15T04:07:06;6.00;2.80
318;DHT22;146;53.448;10.228;2022-11-15T04:09:37;6.10;2.90
318;DHT22;146;53.448;10.228;2022-11-15T04:12:27;6.00;2.50
318;DHT22;146;53.448;10.228;2022-11-15T04:15:02;6.00;2.50
318;DHT22;146;53.448;10.228;2022-11-15T04:17:39;6.10;2.60
318;DHT22;146;53.448;10.228;2022-11-15T04:20:09;6.10;2.10
318;DHT22;146;53.448;10.228;2022-11-15T04:22:56;6.00;1.60
318;DHT22;146;53.448;10.228;2022-11-15T04:25:41;6.10;1.50
318;DHT22;146;53.448;10.228;2022-11-15T04:28:08;6.00;1.50
318;DHT22;146;53.448;10.228;2022-11-15T04:30:35;6.10;1.80
318;DHT22;146;53.448;10.228;2022-11-15T04:33:02;6.10;1.70
318;DHT22;146;53.448;10.228;2022-11-15T04:35:30;6.10;1.70
318;DHT22;146;53.448;10.228;2022-11-15T04:37:58;6.10;1.80
318;DHT22;146;53.448;10.228;2022-11-15T04:40:24;6.20;2.20
318;DHT22;146;53.448;10.228;2022-11-15T04:42:51;6.30;2.40
318;DHT22;146;53.448;10.228;2022-11-15T04:45:18;6.40;2.60
318;DHT22;146;53.448;10.228;2022-11-15T04:47:46;6.50;2.50
318;DHT22;146;53.448;10.228;2022-11-15T04:50:13;6.50;2.70
318;DHT22;146;53.448;10.228;2022-11-15T04:52:41;6.60;2.90
318;DHT22;146;53.448;10.228;2022-11-15T04:55:13;6.70;2.80
318;DHT22;146;53.448;10.228;2022-11-15T04:57:40;6.80;2.80
318;DHT22;146;53.448;10.228;2022-11-15T05:00:09;6.90;2.80
318;DHT22;146;53.448;10.228;2022-11-15T05:02:36;7.00;2.60
318;DHT22;146;53.448;10.228;2022-11-15T05:05:21;7.00;2.70
318;DHT22;146;53.448;10.228;2022-11-15T05:07:48;7.10;2.70
318;DHT22;146;53.448;10.228;2022-11-15T05:10:16;7.20;2.50
318;DHT22;146;53.448;10.228;2022-11-15T05:12:46;7.20;2.50
318;DHT22;146;53.448;10.228;2022-11-15T05:15:13;7.30;2.40
318;DHT22;146;53.448;10.228;2022-11-15T05:17:41;7.20;2.40
318;DHT22;146;53.448;10.228;2022-11-15T05:20:09;7.20;2.70
318;DHT22;146;53.448;10.228;2022-11-15T05:22:36;7.30;3.00
318;DHT22;146;53.448;10.228;2022-11-15T05:25:04;7.30;3.10
318;DHT22;146;53.448;10.228;2022-11-15T05:27:33;7.30;2.80
318;DHT22;146;53.448;10.228;2022-11-15T05:30:00;7.30;2.60
318;DHT22;146;53.448;10.228;2022-11-15T05:32:27;7.20;2.30
318;DHT22;146;53.448;10.228;2022-11-15T05:34:55;7.20;2.60
318;DHT22;146;53.448;10.228;2022-11-15T05:37:22;7.20;2.70
318;DHT22;146;53.448;10.228;2022-11-15T05:39:49;7.30;2.80
318;DHT22;146;53.448;10.228;2022-11-15T05:42:16;7.20;2.60
318;DHT22;146;53.448;10.228;2022-11-15T05:44:48;7.30;2.40
318;DHT22;146;53.448;10.228;2022-11-15T05:47:18;7.20;2.10
318;DHT22;146;53.448;10.228;2022-11-15T05:49:48;7.20;1.80
318;DHT22;146;53.448;10.228;2022-11-15T05:52:18;7.00;1.70
318;DHT22;146;53.448;10.228;2022-11-15T05:54:47;7.00;1.70
318;DHT22;146;53.448;10.228;2022-11-15T05:57:15;7.00;1.60
318;DHT22;146;53.448;10.228;2022-11-15T05:59:42;7.00;1.50
318;DHT22;146;53.448;10.228;2022-11-15T06:02:11;6.90;1.30
318;DHT22;146;53.448;10.228;2022-11-15T06:04:38;6.90;1.60
318;DHT22;146;53.448;10.228;2022-11-15T06:07:05;6.80;1.90
318;DHT22;146;53.448;10.228;2022-11-15T06:09:32;6.80;2.40
318;DHT22;146;53.448;10.228;2022-11-15T06:11:59;6.90;2.80
318;DHT22;146;53.448;10.228;2022-11-15T06:14:26;7.00;3.10
318;DHT22;146;53.448;10.228;2022-11-15T06:16:53;7.10;3.20
318;DHT22;146;53.448;10.228;2022-11-15T06:19:21;7.10;3.20
318;DHT22;146;53.448;10.228;2022-11-15T06:21:48;7.20;3.00
318;DHT22;146;53.448;10.228;2022-11-15T06:24:15;7.20;2.70
318;DHT22;146;53.448;10.228;2022-11-15T06:26:42;7.30;2.70
318;DHT22;146;53.448;10.228;2022-11-15T06:29:09;7.30;2.40
318;DHT22;146;53.448;10.228;2022-11-15T06:31:36;7.30;2.10
318;DHT22;146;53.448;10.228;2022-11-15T06:34:03;7.30;1.70
318;DHT22;146;53.448;10.228;2022-11-15T06:36:34;7.40;1.70
318;DHT22;146;53.448;10.228;2022-11-15T06:39:01;7.40;1.60
318;DHT22;146;53.448;10.228;2022-11-15T06:41:28;7.40;1.30
318;DHT22;146;53.448;10.228;2022-11-15T06:43:55;7.40;1.10
318;DHT22;146;53.448;10.228;2022-11-15T06:46:21;7.40;1.00
318;DHT22;146;53.448;10.228;2022-11-15T06:48:50;7.40;1.00
318;DHT22;146;53.448;10.228;2022-11-15T06:51:17;7.40;1.00
318;DHT22;146;53.448;10.228;2022-11-15T06:53:46;7.40;1.00
318;DHT22;146;53.448;10.228;2022-11-15T06:56:13;7.40;1.00
318;DHT22;146;53.448;10.228;2022-11-15T06:58:40;7.40;1.00
318;DHT22;146;53.448;10.228;2022-11-15T07:01:09;7.40;1.00
318;DHT22;146;53.448;10.228;2022-11-15T07:03:38;7.40;1.00
318;DHT22;146;53.448;10.228;2022-11-15T07:06:05;7.40;1.00
318;DHT22;146;53.448;10.228;2022-11-15T07:08:33;7.40;1.00
318;DHT22;146;53.448;10.228;2022-11-15T07:11:03;7.30;1.00
318;DHT22;146;53.448;10.228;2022-11-15T07:13:32;7.40;1.00
318;DHT22;146;53.448;10.228;2022-11-15T07:16:02;7.40;1.30
318;DHT22;146;53.448;10.228;2022-11-15T07:18:29;7.40;1.30
318;DHT22;146;53.448;10.228;2022-11-15T07:21:00;7.50;1.10
318;DHT22;146;53.448;10.228;2022-11-15T07:23:27;7.50;1.00
318;DHT22;146;53.448;10.228;2022-11-15T07:25:56;7.60;1.00
318;DHT22;146;53.448;10.228;2022-11-15T07:28:24;7.60;1.00
318;DHT22;146;53.448;10.228;2022-11-15T07:30:51;7.70;1.10
318;DHT22;146;53.448;10.228;2022-11-15T07:33:18;7.80;1.00
318;DHT22;146;53.448;10.228;2022-11-15T07:35:45;7.80;1.00
318;DHT22;146;53.448;10.228;2022-11-15T07:38:15;7.90;1.00
318;DHT22;146;53.448;10.228;2022-11-15T07:40:44;8.00;1.00
318;DHT22;146;53.448;10.228;2022-11-15T07:43:11;8.00;1.00
318;DHT22;146;53.448;10.228;2022-11-15T07:45:42;8.00;1.00
318;DHT22;146;53.448;10.228;2022-11-15T07:48:09;8.00;1.00
318;DHT22;146;53.448;10.228;2022-11-15T07:50:36;8.00;1.00
318;DHT22;146;53.448;10.228;2022-11-15T07:53:03;8.10;1.00
318;DHT22;146;53.448;10.228;2022-11-15T07:55:30;8.20;1.00
318;DHT22;146;53.448;10.228;2022-11-15T07:58:01;8.20;1.00
318;DHT22;146;53.448;10.228;2022-11-15T08:00:28;8.30;1.00
318;DHT22;146;53.448;10.228;2022-11-15T08:03:03;8.20;1.00
318;DHT22;146;53.448;10.228;2022-11-15T08:05:30;8.10;1.00
318;DHT22;146;53.448;10.228;2022-11-15T08:07:57;8.10;1.00
318;DHT22;146;53.448;10.228;2022-11-15T08:10:24;8.10;1.00
318;DHT22;146;53.448;10.228;2022-11-15T08:12:57;8.20;1.00
318;DHT22;146;53.448;10.228;2022-11-15T08:15:24;8.10;1.00
318;DHT22;146;53.448;10.228;2022-11-15T08:17:54;8.10;1.00
318;DHT22;146;53.448;10.228;2022-11-15T08:20:27;8.10;1.00
318;DHT22;146;53.448;10.228;2022-11-15T08:22:55;8.10;1.00
318;DHT22;146;53.448;10.228;2022-11-15T08:25:23;8.10;1.00
318;DHT22;146;53.448;10.228;2022-11-15T08:27:52;8.10;1.00
318;DHT22;146;53.448;10.228;2022-11-15T08:30:20;8.20;1.00
318;DHT22;146;53.448;10.228;2022-11-15T08:32:47;8.10;1.00
318;DHT22;146;53.448;10.228;2022-11-15T08:35:14;8.00;1.00
318;DHT22;146;53.448;10.228;2022-11-15T08:37:43;8.10;1.00
318;DHT22;146;53.448;10.228;2022-11-15T08:40:10;8.00;1.00
318;DHT22;146;53.448;10.228;2022-11-15T08:42:37;8.00;1.00
318;DHT22;146;53.448;10.228;2022-11-15T08:45:05;8.10;1.00
318;DHT22;146;53.448;10.228;2022-11-15T08:47:34;8.20;1.00
318;DHT22;146;53.448;10.228;2022-11-15T08:50:01;8.20;1.00
318;DHT22;146;53.448;10.228;2022-11-15T08:52:28;8.20;1.00
318;DHT22;146;53.448;10.228;2022-11-15T08:54:59;8.20;1.00
318;DHT22;146;53.448;10.228;2022-11-15T08:57:28;8.20;1.00
318;DHT22;146;53.448;10.228;2022-11-15T08:59:55;8.30;1.60
318;DHT22;146;53.448;10.228;2022-11-15T09:02:23;8.20;1.70
318;DHT22;146;53.448;10.228;2022-11-15T09:04:50;8.20;1.40
318;DHT22;146;53.448;10.228;2022-11-15T09:07:18;8.30;1.40
318;DHT22;146;53.448;10.228;2022-11-15T09:09:45;8.20;1.40
318;DHT22;146;53.448;10.228;2022-11-15T09:12:13;8.30;1.40
318;DHT22;146;53.448;10.228;2022-11-15T09:14:40;8.30;1.40
318;DHT22;146;53.448;10.228;2022-11-15T09:17:11;8.30;1.50
318;DHT22;146;53.448;10.228;2022-11-15T09:19:38;8.40;1.80
318;DHT22;146;53.448;10.228;2022-11-15T09:22:07;8.50;1.80
318;DHT22;146;53.448;10.228;2022-11-15T09:24:34;8.60;2.30
318;DHT22;146;53.448;10.228;2022-11-15T09:27:01;8.60;2.50
318;DHT22;146;53.448;10.228;2022-11-15T09:29:30;8.80;2.30
318;DHT22;146;53.448;10.228;2022-11-15T09:31:57;8.80;1.70
318;DHT22;146;53.448;10.228;2022-11-15T09:34:24;8.80;1.50
318;DHT22;146;53.448;10.228;2022-11-15T09:36:51;8.90;1.60
318;DHT22;146;53.448;10.228;2022-11-15T09:39:18;9.00;1.60
318;DHT22;146;53.448;10.228;2022-11-15T09:45:00;9.30;2.60
318;DHT22;146;53.448;10.228;2022-11-15T09:47:54;9.50;2.80
318;DHT22;146;53.448;10.228;2022-11-15T09:50:31;9.60;1.00
318;DHT22;146;53.448;10.228;2022-11-15T09:52:59;9.70;1.00
318;DHT22;146;53.448;10.228;2022-11-15T09:55:40;9.90;1.00
318;DHT22;146;53.448;10.228;2022-11-15T09:58:21;9.90;1.00
318;DHT22;146;53.448;10.228;2022-11-15T10:00:57;10.00;1.00
318;DHT22;146;53.448;10.228;2022-11-15T10:03:33;10.10;1.00
318;DHT22;146;53.448;10.228;2022-11-15T10:06:08;10.10;1.00
318;DHT22;146;53.448;10.228;2022-11-15T10:08:49;10.10;1.00
318;DHT22;146;53.448;10.228;2022-11-15T10:11:19;10.20;1.00
318;DHT22;146;53.448;10.228;2022-11-15T10:13:48;10.30;1.00
318;DHT22;146;53.448;10.228;2022-11-15T10:16:41;10.30;1.00
318;DHT22;146;53.448;10.228;2022-11-15T10:19:18;10.30;1.00
318;DHT22;146;53.448;10.228;2022-11-15T10:21:56;10.50;1.00
318;DHT22;146;53.448;10.228;2022-11-15T10:24:28;10.50;1.00
318;DHT22;146;53.448;10.228;2022-11-15T10:27:06;10.60;1.00
318;DHT22;146;53.448;10.228;2022-11-15T10:29:43;10.70;1.00
318;DHT22;146;53.448;10.228;2022-11-15T10:32:12;10.80;1.00
318;DHT22;146;53.448;10.228;2022-11-15T10:34:39;10.80;1.00
318;DHT22;146;53.448;10.228;2022-11-15T10:37:07;10.80;1.00
318;DHT22;146;53.448;10.228;2022-11-15T10:39:39;10.80;1.00
318;DHT22;146;53.448;10.228;2022-11-15T10:42:17;10.90;1.00
318;DHT22;146;53.448;10.228;2022-11-15T10:44:45;10.90;1.00
318;DHT22;146;53.448;10.228;2022-11-15T10:47:36;11.00;1.00
318;DHT22;146;53.448;10.228;2022-11-15T10:50:26;11.20;1.00
318;DHT22;146;53.448;10.228;2022-11-15T10:52:57;11.10;1.00
318;DHT22;146;53.448;10.228;2022-11-15T10:55:27;11.00;1.00
318;DHT22;146;53.448;10.228;2022-11-15T10:57:56;11.00;1.00
318;DHT22;146;53.448;10.228;2022-11-15T11:00:34;11.10;1.00
318;DHT22;146;53.448;10.228;2022-11-15T11:03:20;11.20;1.00
318;DHT22;146;53.448;10.228;2022-11-15T11:06:03;11.20;1.00
318;DHT22;146;53.448;10.228;2022-11-15T11:08:30;11.20;1.00
318;DHT22;146;53.448;10.228;2022-11-15T11:11:02;11.00;1.00
318;DHT22;146;53.448;10.228;2022-11-15T11:13:31;11.10;1.00
318;DHT22;146;53.448;10.228;2022-11-15T11:18:49;11.20;1.00
318;DHT22;146;53.448;10.228;2022-11-15T11:21:24;11.20;1.00
318;DHT22;146;53.448;10.228;2022-11-15T11:23:57;11.30;1.00
318;DHT22;146;53.448;10.228;2022-11-15T11:26:38;11.30;1.00
318;DHT22;146;53.448;10.228;2022-11-15T11:29:19;11.40;1.00
318;DHT22;146;53.448;10.228;2022-11-15T11:31:54;11.40;1.00
318;DHT22;146;53.448;10.228;2022-11-15T11:34:37;11.40;1.00
318;DHT22;146;53.448;10.228;2022-11-15T11:37:14;11.40;1.00
318;DHT22;146;53.448;10.228;2022-11-15T11:39:50;11.50;1.00
318;DHT22;146;53.448;10.228;2022-11-15T11:42:26;11.50;1.00
318;DHT22;146;53.448;10.228;2022-11-15T11:45:03;11.50;1.00
318;DHT22;146;53.448;10.228;2022-11-15T11:47:36;11.60;1.00
318;DHT22;146;53.448;10.228;2022-11-15T11:50:12;11.60;1.00
318;DHT22;146;53.448;10.228;2022-11-15T11:52:44;11.70;1.00
318;DHT22;146;53.448;10.228;2022-11-15T11:55:20;11.70;1.00
318;DHT22;146;53.448;10.228;2022-11-15T11:57:56;11.70;1.00
318;DHT22;146;53.448;10.228;2022-11-15T12:00:28;11.70;1.00
318;DHT22;146;53.448;10.228;2022-11-15T12:03:04;11.70;1.00
318;DHT22;146;53.448;10.228;2022-11-15T12:05:40;11.70;1.00
318;DHT22;146;53.448;10.228;2022-11-15T12:08:20;11.70;1.00
318;DHT22;146;53.448;10.228;2022-11-15T12:10:54;11.80;1.00
318;DHT22;146;53.448;10.228;2022-11-15T12:13:26;11.80;1.00
318;DHT22;146;53.448;10.228;2022-11-15T12:16:07;11.80;1.00
318;DHT22;146;53.448;10.228;2022-11-15T12:18:36;11.90;1.00
318;DHT22;146;53.448;10.228;2022-11-15T12:21:08;12.00;1.00
318;DHT22;146;53.448;10.228;2022-11-15T12:23:45;12.00;1.00
318;DHT22;146;53.448;10.228;2022-11-15T12:26:17;12.10;1.00
318;DHT22;146;53.448;10.228;2022-11-15T12:28:47;12.10;1.00
318;DHT22;146;53.448;10.228;2022-11-15T12:31:19;12.20;1.00
318;DHT22;146;53.448;10.228;2022-11-15T12:33:49;12.20;1.00
318;DHT22;146;53.448;10.228;2022-11-15T12:36:35;12.30;1.00
318;DHT22;146;53.448;10.228;2022-11-15T12:39:04;12.40;1.00
318;DHT22;146;53.448;10.228;2022-11-15T12:41:33;12.30;1.00
318;DHT22;146;53.448;10.228;2022-11-15T12:44:00;12.30;1.00
318;DHT22;146;53.448;10.228;2022-11-15T12:47:00;12.30;1.00
318;DHT22;146;53.448;10.228;2022-11-15T12:49:47;12.20;1.00
318;DHT22;146;53.448;10.228;2022-11-15T12:52:16;12.20;1.00
318;DHT22;146;53.448;10.228;2022-11-15T12:58:26;12.20;1.00
318;DHT22;146;53.448;10.228;2022-11-15T13:00:54;12.20;1.00
318;DHT22;146;53.448;10.228;2022-11-15T13:03:28;12.20;1.00
318;DHT22;146;53.448;10.228;2022-11-15T13:06:04;12.10;1.00
318;DHT22;146;53.448;10.228;2022-11-15T13:08:50;12.10;1.00
318;DHT22;146;53.448;10.228;2022-11-15T13:11:45;12.00;1.00
318;DHT22;146;53.448;10.228;2022-11-15T13:17:34;11.90;1.00
318;DHT22;146;53.448;10.228;2022-11-15T13:20:21;11.80;1.00
318;DHT22;146;53.448;10.228;2022-11-15T13:22:51;11.80;1.00
318;DHT22;146;53.448;10.228;2022-11-15T13:28:31;11.80;1.00
318;DHT22;146;53.448;10.228;2022-11-15T13:31:00;11.80;1.00
318;DHT22;146;53.448;10.228;2022-11-15T13:33:31;11.80;1.00
318;DHT22;146;53.448;10.228;2022-11-15T13:36:00;11.80;1.00
318;DHT22;146;53.448;10.228;2022-11-15T13:38:29;11.90;1.00
318;DHT22;146;53.448;10.228;2022-11-15T13:40:58;11.90;1.00
318;DHT22;146;53.448;10.228;2022-11-15T13:43:35;11.90;1.00
318;DHT22;146;53.448;10.228;2022-11-15T13:46:12;11.90;1.00
318;DHT22;146;53.448;10.228;2022-11-15T13:48:41;11.90;1.00
318;DHT22;146;53.448;10.228;2022-11-15T13:51:15;11.90;1.00
318;DHT22;146;53.448;10.228;2022-11-15T13:53:46;11.90;1.00
318;DHT22;146;53.448;10.228;2022-11-15T13:56:15;11.90;1.00
318;DHT22;146;53.448;10.228;2022-11-15T13:58:47;11.90;1.00
318;DHT22;146;53.448;10.228;2022-11-15T14:01:30;11.90;1.00
318;DHT22;146;53.448;10.228;2022-11-15T14:03:59;11.80;1.00
318;DHT22;146;53.448;10.228;2022-11-15T14:06:29;11.80;1.00
318;DHT22;146;53.448;10.228;2022-11-15T14:09:15;11.80;1.00
318;DHT22;146;53.448;10.228;2022-11-15T14:11:52;11.80;1.00
318;DHT22;146;53.448;10.228;2022-11-15T14:14:23;11.70;1.00
318;DHT22;146;53.448;10.228;2022-11-15T14:16:51;11.70;1.00
318;DHT22;146;53.448;10.228;2022-11-15T14:19:39;11.70;1.00
318;DHT22;146;53.448;10.228;2022-11-15T14:22:14;11.80;1.00
318;DHT22;146;53.448;10.228;2022-11-15T14:24:55;11.80;1.00
318;DHT22;146;53.448;10.228;2022-11-15T14:27:30;11.80;1.00
318;DHT22;146;53.448;10.228;2022-11-15T14:29:59;11.80;1.00
318;DHT22;146;53.448;10.228;2022-11-15T14:32:28;11.80;1.00
318;DHT22;146;53.448;10.228;2022-11-15T14:34:59;11.80;1.00
318;DHT22;146;53.448;10.228;2022-11-15T14:37:29;11.80;1.00
318;DHT22;146;53.448;10.228;2022-11-15T14:40:15;11.80;1.00
318;DHT22;146;53.448;10.228;2022-11-15T14:42:43;11.70;1.00
318;DHT22;146;53.448;10.228;2022-11-15T14:45:14;11.70;1.00
318;DHT22;146;53.448;10.228;2022-11-15T14:47:44;11.60;1.00
318;DHT22;146;53.448;10.228;2022-11-15T14:50:12;11.60;1.00
318;DHT22;146;53.448;10.228;2022-11-15T14:52:40;11.50;1.00
318;DHT22;146;53.448;10.228;2022-11-15T14:55:16;11.50;1.00
318;DHT22;146;53.448;10.228;2022-11-15T14:57:44;11.50;1.00
318;DHT22;146;53.448;10.228;2022-11-15T15:00:16;11.40;1.00
318;DHT22;146;53.448;10.228;2022-11-15T15:02:52;11.30;1.00
318;DHT22;146;53.448;10.228;2022-11-15T15:05:24;11.30;1.00
318;DHT22;146;53.448;10.228;2022-11-15T15:07:54;11.20;1.00
318;DHT22;146;53.448;10.228;2022-11-15T15:10:22;11.10;1.00
318;DHT22;146;53.448;10.228;2022-11-15T15:12:49;11.00;1.00
318;DHT22;146;53.448;10.228;2022-11-15T15:15:26;11.00;1.00
318;DHT22;146;53.448;10.228;2022-11-15T15:17:53;10.90;1.00
318;DHT22;146;53.448;10.228;2022-11-15T15:20:20;10.80;1.00
318;DHT22;146;53.448;10.228;2022-11-15T15:22:46;10.70;1.00
318;DHT22;146;53.448;10.228;2022-11-15T15:25:21;10.60;1.00
318;DHT22;146;53.448;10.228;2022-11-15T15:27:48;10.60;1.00
318;DHT22;146;53.448;10.228;2022-11-15T15:30:16;10.60;1.00
318;DHT22;146;53.448;10.228;2022-11-15T15:32:44;10.50;1.00
318;DHT22;146;53.448;10.228;2022-11-15T15:35:12;10.50;1.00
318;DHT22;146;53.448;10.228;2022-11-15T15:37:40;10.50;1.10
318;DHT22;146;53.448;10.228;2022-11-15T15:40:14;10.50;1.20
318;DHT22;146;53.448;10.228;2022-11-15T15:42:41;10.50;1.30
318;DHT22;146;53.448;10.228;2022-11-15T15:45:09;10.40;1.10
318;DHT22;146;53.448;10.228;2022-11-15T15:47:36;10.50;1.00
318;DHT22;146;53.448;10.228;2022-11-15T15:50:14;10.50;1.00
318;DHT22;146;53.448;10.228;2022-11-15T15:52:43;10.50;1.00
318;DHT22;146;53.448;10.228;2022-11-15T15:55:10;10.40;1.00
318;DHT22;146;53.448;10.228;2022-11-15T15:57:37;10.40;1.00
318;DHT22;146;53.448;10.228;2022-11-15T16:00:05;10.50;1.00
318;DHT22;146;53.448;10.228;2022-11-15T16:02:33;10.40;1.00
318;DHT22;146;53.448;10.228;2022-11-15T16:05:00;10.40;1.00
318;DHT22;146;53.448;10.228;2022-11-15T16:07:28;10.40;1.00
318;DHT22;146;53.448;10.228;2022-11-15T16:09:55;10.40;1.00
318;DHT22;146;53.448;10.228;2022-11-15T16:12:29;10.40;1.00
318;DHT22;146;53.448;10.228;2022-11-15T16:14:57;10.40;1.00
318;DHT22;146;53.448;10.228;2022-11-15T16:17:26;10.50;1.00
318;DHT22;146;53.448;10.228;2022-11-15T16:19:53;10.40;1.00
318;DHT22;146;53.448;10.228;2022-11-15T16:22:20;10.40;1.00
318;DHT22;146;53.448;10.228;2022-11-15T16:24:48;10.40;1.00
318;DHT22;146;53.448;10.228;2022-11-15T16:27:16;10.50;1.00
318;DHT22;146;53.448;10.228;2022-11-15T16:29:44;10.50;1.00
318;DHT22;146;53.448;10.228;2022-11-15T16:32:11;10.40;1.00
318;DHT22;146;53.448;10.228;2022-11-15T16:34:38;10.40;1.00
318;DHT22;146;53.448;10.228;2022-11-15T16:37:08;10.30;1.20
318;DHT22;146;53.448;10.228;2022-11-15T16:39:41;10.30;1.50
318;DHT22;146;53.448;10.228;2022-11-15T16:42:10;10.40;1.60
318;DHT22;146;53.448;10.228;2022-11-15T16:44:37;10.30;1.80
318;DHT22;146;53.448;10.228;2022-11-15T16:47:04;10.20;2.20
318;DHT22;146;53.448;10.228;2022-11-15T16:49:31;10.20;2.60
318;DHT22;146;53.448;10.228;2022-11-15T16:51:57;10.20;3.00
318;DHT22;146;53.448;10.228;2022-11-15T16:54:24;10.20;3.40
318;DHT22;146;53.448;10.228;2022-11-15T16:56:51;10.30;3.40
318;DHT22;146;53.448;10.228;2022-11-15T16:59:20;10.30;3.50
318;DHT22;146;53.448;10.228;2022-11-15T17:01:46;10.30;3.60
318;DHT22;146;53.448;10.228;2022-11-15T17:04:17;10.20;3.80
318;DHT22;146;53.448;10.228;2022-11-15T17:06:47;10.20;4.30
318;DHT22;146;53.448;10.228;2022-11-15T17:09:17;10.20;5.10
318;DHT22;146;53.448;10.228;2022-11-15T17:11:44;10.20;5.20
318;DHT22;146;53.448;10.228;2022-11-15T17:14:11;10.20;5.50
318;DHT22;146;53.448;10.228;2022-11-15T17:16:40;10.20;5.60
318;DHT22;146;53.448;10.228;2022-11-15T17:19:13;10.20;6.00
318;DHT22;146;53.448;10.228;2022-11-15T17:21:40;10.30;5.60
318;DHT22;146;53.448;10.228;2022-11-15T17:24:07;10.30;5.40
318;DHT22;146;53.448;10.228;2022-11-15T17:26:35;10.40;5.70
318;DHT22;146;53.448;10.228;2022-11-15T17:29:03;10.40;5.80